createdAt,value
2023-03-22T00:01:41.054Z,87.20
2023-03-22T00:04:13.468Z,88.10
2023-03-22T00:06:45.388Z,91.10
2023-03-22T00:09:17.456Z,88.60
2023-03-22T00:11:51.112Z,86.50
2023-03-22T00:14:25.746Z,96.70
2023-03-22T00:16:57.771Z,81.60
2023-03-22T00:19:30.419Z,83.40
2023-03-22T00:22:03.650Z,85.60
2023-03-22T00:24:38.806Z,85.90
2023-03-22T00:27:11.269Z,84.70
2023-03-22T00:29:48.683Z,88.80
2023-03-22T00:32:21.285Z,86.10
2023-03-22T00:34:55.106Z,88.60
2023-03-22T00:37:34.146Z,93.80
2023-03-22T00:40:09.030Z,93.80
2023-03-22T00:42:42.522Z,97.30
2023-03-22T00:45:15.825Z,96.70
2023-03-22T00:47:48.049Z,92.60
2023-03-22T00:50:23.309Z,100.30
2023-03-22T00:52:55.465Z,93.00
2023-03-22T00:55:27.572Z,95.70
2023-03-22T00:58:00.454Z,88.50
2023-03-22T01:00:34.916Z,96.10
2023-03-22T01:03:07.190Z,104.20
2023-03-22T01:05:39.343Z,101.70
2023-03-22T01:08:13.055Z,104.20
2023-03-22T01:10:47.589Z,100.40
2023-03-22T01:13:21.538Z,103.70
2023-03-22T01:15:54.373Z,107.10
2023-03-22T01:18:26.642Z,93.70
2023-03-22T01:21:00.117Z,99.60
2023-03-22T01:23:32.233Z,100.80
2023-03-22T01:26:05.007Z,98.50
2023-03-22T01:28:37.313Z,95.30
2023-03-22T01:31:10.172Z,101.10
2023-03-22T01:33:42.184Z,87.40
2023-03-22T01:36:14.793Z,93.60
2023-03-22T01:38:46.908Z,107.00
2023-03-22T01:41:20.632Z,100.20
2023-03-22T01:44:14.098Z,97.00
2023-03-22T01:46:48.461Z,100.00
2023-03-22T01:49:24.516Z,93.40
2023-03-22T01:52:00.464Z,94.10
2023-03-22T01:54:46.181Z,91.60
2023-03-22T01:57:39.547Z,92.60
2023-03-22T02:00:17.232Z,94.80
2023-03-22T02:03:02.138Z,89.10
2023-03-22T02:05:42.139Z,98.10
2023-03-22T02:08:15.164Z,98.10
2023-03-22T02:11:06.499Z,94.90
2023-03-22T02:13:57.527Z,87.70
2023-03-22T02:17:12.160Z,90.10
2023-03-22T02:23:03.719Z,98.80
2023-03-22T02:26:06.025Z,88.10
2023-03-22T02:28:49.740Z,95.00
2023-03-22T02:31:40.641Z,100.50
2023-03-22T02:34:37.510Z,101.20
2023-03-22T02:37:40.281Z,109.90
2023-03-22T02:40:16.632Z,104.70
2023-03-22T02:42:57.688Z,107.30
2023-03-22T02:45:36.104Z,103.80
2023-03-22T02:48:16.712Z,102.90
2023-03-22T02:50:54.943Z,101.30
2023-03-22T02:53:31.846Z,107.40
2023-03-22T02:56:08.159Z,101.10
2023-03-22T02:58:45.856Z,117.30
2023-03-22T03:01:24.905Z,133.60
2023-03-22T03:04:01.241Z,128.90
2023-03-22T03:06:38.977Z,113.90
2023-03-22T03:09:13.878Z,114.40
2023-03-22T03:11:49.085Z,123.60
2023-03-22T03:14:26.595Z,105.20
2023-03-22T03:17:14.415Z,114.40
2023-03-22T03:19:58.684Z,113.00
2023-03-22T03:22:44.779Z,115.50
2023-03-22T03:25:26.191Z,110.60
2023-03-22T03:28:05.637Z,114.40
2023-03-22T03:30:43.415Z,114.00
2023-03-22T03:33:20.850Z,105.10
2023-03-22T03:35:57.901Z,119.50
2023-03-22T03:38:32.944Z,106.70
2023-03-22T03:41:07.955Z,111.80
2023-03-22T03:43:41.178Z,109.90
2023-03-22T03:46:13.972Z,113.20
2023-03-22T03:48:49.806Z,100.50
2023-03-22T03:51:21.842Z,105.00
2023-03-22T03:53:54.314Z,101.30
2023-03-22T03:56:26.561Z,98.80
2023-03-22T03:58:58.938Z,109.50
2023-03-22T04:01:31.021Z,102.60
2023-03-22T04:04:11.561Z,97.30
2023-03-22T04:06:54.371Z,101.50
2023-03-22T04:09:29.507Z,107.90
2023-03-22T04:12:04.306Z,108.00
2023-03-22T04:14:36.871Z,108.00
2023-03-22T04:17:14.536Z,115.60
2023-03-22T04:19:46.528Z,108.10
2023-03-22T04:22:21.641Z,113.40
2023-03-22T04:24:56.577Z,114.00
2023-03-22T04:27:31.036Z,107.40
2023-03-22T04:30:10.703Z,109.00
2023-03-22T04:33:11.780Z,118.10
2023-03-22T04:36:10.265Z,105.40
2023-03-22T04:38:50.781Z,111.70
2023-03-22T04:41:24.950Z,107.60
2023-03-22T04:44:03.524Z,105.40
2023-03-22T04:46:38.112Z,105.50
2023-03-22T04:49:11.317Z,109.60
2023-03-22T04:51:44.804Z,112.40
2023-03-22T04:54:37.392Z,114.80
2023-03-22T04:57:09.594Z,110.20
2023-03-22T04:59:45.096Z,108.50
2023-03-22T05:02:17.231Z,120.30
2023-03-22T05:04:49.949Z,124.30
2023-03-22T05:07:36.620Z,128.10
2023-03-22T05:10:11.712Z,132.10
2023-03-22T05:12:44.978Z,141.70
2023-03-22T05:15:27.476Z,138.60
2023-03-22T05:17:59.922Z,116.30
2023-03-22T05:20:32.678Z,116.00
2023-03-22T05:23:23.202Z,101.70
2023-03-22T05:25:58.376Z,103.20
2023-03-22T05:28:32.066Z,102.30
2023-03-22T05:31:17.332Z,108.30
2023-03-22T05:33:54.835Z,100.90
2023-03-22T05:36:29.844Z,101.80
2023-03-22T05:39:28.267Z,102.30
2023-03-22T05:42:00.981Z,111.50
2023-03-22T05:44:35.540Z,109.40
2023-03-22T05:47:13.534Z,102.00
2023-03-22T05:50:06.801Z,101.00
2023-03-22T05:52:39.084Z,108.90
2023-03-22T05:55:46.471Z,103.60
2023-03-22T05:58:19.244Z,113.50
2023-03-22T06:00:52.838Z,102.20
2023-03-22T06:03:32.175Z,93.30
2023-03-22T06:06:12.135Z,105.30
2023-03-22T06:08:55.310Z,100.90
2023-03-22T06:11:30.655Z,113.70
2023-03-22T06:14:02.817Z,102.70
2023-03-22T06:16:47.385Z,101.20
2023-03-22T06:19:19.643Z,100.40
2023-03-22T06:21:52.917Z,99.80
2023-03-22T06:24:26.849Z,100.10
2023-03-22T06:26:58.886Z,107.20
2023-03-22T06:29:31.566Z,101.10
2023-03-22T06:32:05.210Z,109.90
2023-03-22T06:34:37.711Z,101.90
2023-03-22T06:37:10.079Z,101.30
2023-03-22T06:39:45.424Z,86.90
2023-03-22T06:42:17.583Z,97.10
2023-03-22T06:44:50.143Z,92.60
2023-03-22T06:47:34.350Z,100.80
2023-03-22T06:50:07.290Z,100.20
2023-03-22T06:52:57.753Z,98.90
2023-03-22T06:55:33.328Z,87.50
2023-03-22T06:58:06.422Z,93.20
2023-03-22T07:00:39.436Z,96.70
2023-03-22T07:03:12.659Z,96.90
2023-03-22T07:06:01.661Z,97.60
2023-03-22T07:11:11.291Z,89.10
2023-03-22T07:13:43.472Z,90.30
2023-03-22T07:16:20.436Z,84.90
2023-03-22T07:18:57.238Z,93.70
2023-03-22T07:21:29.394Z,87.90
2023-03-22T07:24:04.468Z,88.70
2023-03-22T07:26:38.715Z,88.10
2023-03-22T07:29:13.799Z,90.50
2023-03-22T07:31:47.557Z,84.50
2023-03-22T07:34:28.804Z,85.10
2023-03-22T07:37:10.173Z,89.60
2023-03-22T07:39:42.819Z,81.50
2023-03-22T07:42:15.542Z,81.90
2023-03-22T07:44:49.877Z,72.30
2023-03-22T07:47:40.035Z,78.30
2023-03-22T07:50:19.576Z,64.70
2023-03-22T07:52:55.522Z,67.40
2023-03-22T07:55:27.527Z,67.40
2023-03-22T07:57:59.932Z,68.00
2023-03-22T08:00:32.303Z,55.80
2023-03-22T08:03:24.311Z,59.20
2023-03-22T08:06:08.614Z,54.80
2023-03-22T08:08:41.737Z,52.80
2023-03-22T08:11:14.309Z,49.30
2023-03-22T08:13:46.362Z,52.10
2023-03-22T08:16:20.030Z,47.40
2023-03-22T08:18:52.294Z,47.80
2023-03-22T08:21:26.112Z,47.30
2023-03-22T08:24:01.350Z,50.60
2023-03-22T08:26:52.263Z,59.10
2023-03-22T08:29:34.146Z,46.30
2023-03-22T08:32:08.518Z,51.20
2023-03-22T08:34:41.352Z,50.80
2023-03-22T08:37:14.427Z,52.80
2023-03-22T08:39:47.352Z,53.40
2023-03-22T08:42:32.352Z,52.70
2023-03-22T08:45:05.055Z,47.80
2023-03-22T08:47:38.896Z,54.60
2023-03-22T08:50:14.376Z,55.00
2023-03-22T08:52:57.559Z,52.30
2023-03-22T08:55:35.568Z,53.90
2023-03-22T08:58:19.112Z,50.40
2023-03-22T09:01:16.267Z,52.50
2023-03-22T09:03:53.913Z,51.60
2023-03-22T09:06:27.865Z,53.10
2023-03-22T09:08:59.997Z,49.90
2023-03-22T09:11:35.609Z,50.30
2023-03-22T09:14:10.976Z,51.90
2023-03-22T09:16:44.238Z,51.30
2023-03-22T09:19:19.393Z,48.30
2023-03-22T09:21:52.043Z,51.20
2023-03-22T09:24:34.408Z,52.10
2023-03-22T09:27:08.015Z,48.80
2023-03-22T09:29:40.032Z,46.20
2023-03-22T09:32:15.660Z,47.10
2023-03-22T09:34:48.828Z,44.50
2023-03-22T09:37:21.773Z,50.00
2023-03-22T09:39:57.696Z,39.30
2023-03-22T09:42:38.342Z,39.10
2023-03-22T09:45:17.872Z,44.00
2023-03-22T09:47:55.987Z,40.30
2023-03-22T09:50:33.210Z,39.50
2023-03-22T09:53:05.287Z,34.50
2023-03-22T09:55:45.576Z,41.70
2023-03-22T09:58:25.996Z,39.70
2023-03-22T10:03:56.698Z,34.40
2023-03-22T10:06:29.557Z,37.00
2023-03-22T10:09:11.074Z,39.00
2023-03-22T10:11:47.552Z,32.00
2023-03-22T10:14:34.274Z,40.70
2023-03-22T10:17:11.820Z,34.30
2023-03-22T10:19:52.842Z,35.90
2023-03-22T10:22:31.577Z,34.30
2023-03-22T10:25:07.383Z,33.10
2023-03-22T10:27:40.194Z,32.90
2023-03-22T10:30:23.035Z,36.80
2023-03-22T10:33:02.153Z,32.60
2023-03-22T10:35:34.770Z,33.20
2023-03-22T10:38:18.567Z,32.50
2023-03-22T10:40:53.651Z,31.20
2023-03-22T10:43:29.146Z,28.40
2023-03-22T10:46:03.852Z,36.10
2023-03-22T10:48:39.193Z,29.60
2023-03-22T10:51:17.418Z,31.20
2023-03-22T10:53:53.196Z,30.10
2023-03-22T10:56:26.320Z,29.70
2023-03-22T10:58:59.155Z,26.10
2023-03-22T11:01:33.649Z,28.00
2023-03-22T11:04:12.695Z,21.80
2023-03-22T11:06:54.820Z,25.60
2023-03-22T11:09:28.143Z,27.40
2023-03-22T11:12:01.820Z,27.40
2023-03-22T11:14:37.546Z,22.70
2023-03-22T11:17:14.588Z,28.10
2023-03-22T11:19:55.668Z,25.60
2023-03-22T11:22:32.668Z,24.40
2023-03-22T11:25:08.464Z,28.60
2023-03-22T11:27:50.079Z,31.20
2023-03-22T11:30:26.180Z,27.50
2023-03-22T11:33:17.032Z,25.60
2023-03-22T11:35:56.851Z,25.90
2023-03-22T11:38:36.668Z,25.70
2023-03-22T11:41:13.429Z,24.90
2023-03-22T11:43:51.434Z,19.70
2023-03-22T11:46:24.934Z,25.90
2023-03-22T11:49:03.159Z,25.00
2023-03-22T11:51:37.390Z,22.20
2023-03-22T11:54:16.023Z,19.00
2023-03-22T11:56:51.325Z,13.70
2023-03-22T11:59:28.142Z,13.00
2023-03-22T12:02:06.678Z,17.30
2023-03-22T12:04:42.921Z,15.90
2023-03-22T12:07:19.507Z,12.30
2023-03-22T12:09:58.975Z,12.60
2023-03-22T12:12:36.175Z,14.20
2023-03-22T12:15:14.507Z,13.10
2023-03-22T12:17:50.726Z,14.30
2023-03-22T12:20:36.048Z,15.20
2023-03-22T12:23:16.716Z,14.50
2023-03-22T12:25:52.866Z,13.90
2023-03-22T12:28:29.414Z,19.40
2023-03-22T12:31:03.835Z,14.80
2023-03-22T12:33:48.721Z,13.40
2023-03-22T12:36:27.694Z,14.60
2023-03-22T12:39:02.526Z,14.00
2023-03-22T12:41:40.067Z,14.10
2023-03-22T12:44:18.585Z,11.60
2023-03-22T12:46:54.713Z,10.40
2023-03-22T12:49:38.172Z,13.70
2023-03-22T12:52:16.721Z,13.50
2023-03-22T12:54:51.748Z,14.20
2023-03-22T12:57:24.220Z,11.50
2023-03-22T13:00:00.398Z,11.40
2023-03-22T13:02:35.544Z,11.30
2023-03-22T13:05:12.161Z,12.80
2023-03-22T13:07:55.823Z,10.40
2023-03-22T13:11:01.738Z,13.20
2023-03-22T13:13:50.024Z,11.80
2023-03-22T13:16:43.363Z,10.70
2023-03-22T13:19:34.627Z,10.70
2023-03-22T13:22:22.343Z,8.40
2023-03-22T13:25:14.630Z,8.40
2023-03-22T13:27:58.632Z,9.80
2023-03-22T13:30:35.055Z,12.70
2023-03-22T13:33:21.301Z,10.10
2023-03-22T13:35:58.914Z,12.30
2023-03-22T13:38:35.040Z,10.60
2023-03-22T13:41:10.098Z,10.70
2023-03-22T13:43:51.236Z,14.30
2023-03-22T13:46:50.489Z,9.70
2023-03-22T13:49:53.427Z,10.90
2023-03-22T13:52:28.978Z,10.40
2023-03-22T13:55:01.565Z,91.50
2023-03-22T13:57:50.374Z,12.50
2023-03-22T14:00:41.344Z,12.50
2023-03-22T14:03:24.501Z,12.30
2023-03-22T14:06:10.109Z,9.90
2023-03-22T14:08:44.650Z,17.40
2023-03-22T14:11:33.201Z,11.40
2023-03-22T14:14:09.179Z,7.90
2023-03-22T14:16:46.566Z,39.60
2023-03-22T14:19:23.270Z,50.40
